This is the latest recevied weather packets stored in our database for station/object DH4BS-10. If no packets are shown the sender has not sent any weather packets the latest 10 day(s).
| Time | Temp. | Humidity | Pressure | Rain* | Wind** | Luminosity | Snow |
|---|---|---|---|---|---|---|---|
| 1777871641 | 22.78° C | 37% | 1013.7 hPa | - | - | - | - |
| 1777868041 | 22.78° C | 36% | 1013.6 hPa | - | - | - | - |
| 1777864440 | 23.89° C | 36% | 1013.5 hPa | - | - | - | - |
| 1777860840 | 25.56° C | 34% | 1013.3 hPa | - | - | - | - |
| 1777857240 | 24.44° C | 37% | 1013.2 hPa | - | - | - | - |
| 1777853640 | 25° C | 36% | 1013.3 hPa | - | - | - | - |
| 1777850040 | 26.11° C | 36% | 1013.2 hPa | - | - | - | - |
| 1777846439 | 26.67° C | 36% | 1013.3 hPa | - | - | - | - |
| 1777842839 | 27.22° C | 36% | 1013.4 hPa | - | - | - | - |
| 1777839239 | 27.78° C | 35% | 1013.3 hPa | - | - | - | - |
| 1777835642 | 28.89° C | 36% | 1012.9 hPa | - | - | - | - |
| 1777832042 | 30° C | 35% | 1012 hPa | - | - | - | - |
| 1777828442 | 31.11° C | 35% | 1011.7 hPa | - | - | - | - |
| 1777824842 | 31.67° C | 35% | 1011.4 hPa | - | - | - | - |
| 1777821241 | 32.22° C | 35% | 1011.6 hPa | - | - | - | - |
| 1777817641 | 32.22° C | 35% | 1011.7 hPa | - | - | - | - |
| 1777814041 | 30.56° C | 35% | 1012.1 hPa | - | - | - | - |
| 1777810441 | 29.44° C | 35% | 1012.4 hPa | - | - | - | - |
| 1777806841 | 28.33° C | 35% | 1012.9 hPa | - | - | - | - |
| 1777803240 | 27.22° C | 36% | 1013.8 hPa | - | - | - | - |
| 1777799640 | 26.11° C | 35% | 1013.9 hPa | - | - | - | - |
| 1777796040 | 25.56° C | 35% | 1013.8 hPa | - | - | - | - |
| 1777792440 | 23.89° C | 36% | 1013.7 hPa | - | - | - | - |
| 1777788840 | 22.78° C | 36% | 1013.7 hPa | - | - | - | - |
| 1777785240 | 22.22° C | 36% | 1013.8 hPa | - | - | - | - |
* Rain since midnight (hover to see other rain measurements)
** Current wind speed in m/s (hover to see current wind gust speed)